Time;durP1;ratioP1;P1;durP2;ratioP2;P2;SDS_P1;SDS_P2;PMS_P1;PMS_P2;Temp;Humidity;BMP_temperature;BMP_pressure;BME280_temperature;BME280_humidity;BME280_pressure;Samples;Min_cycle;Max_cycle;Signal;HPM_P1;HPM_P2
2024/04/17 00:00:30;;;;;;;5.37;2.47;;;8.20;99.90;;;;;;5490568;25;20782;-75
2024/04/17 00:02:59;;;;;;;3.38;2.50;;;8.20;99.90;;;;;;5490324;25;21069;-74
2024/04/17 00:05:31;;;;;;;1.73;1.63;;;8.20;99.90;;;;;;5490621;25;20248;-76
2024/04/17 00:07:56;;;;;;;3.50;1.85;;;8.20;99.90;;;;;;5490009;25;20252;-76
2024/04/17 00:10:25;;;;;;;2.10;1.90;;;8.20;99.90;;;;;;5490816;25;20337;-76
2024/04/17 00:12:51;;;;;;;3.88;2.40;;;8.20;99.90;;;;;;5489676;25;20553;-76
2024/04/17 00:15:20;;;;;;;3.20;2.87;;;8.10;99.90;;;;;;5489305;25;20794;-75
2024/04/17 00:17:45;;;;;;;3.00;2.00;;;8.20;99.90;;;;;;5486741;25;20545;-75
2024/04/17 00:20:17;;;;;;;3.77;2.63;;;8.10;99.90;;;;;;5457764;26;20354;-76
2024/04/17 00:22:43;;;;;;;3.90;2.25;;;8.10;99.90;;;;;;5467864;25;20553;-76
2024/04/17 00:25:11;;;;;;;1.70;1.40;;;8.10;99.90;;;;;;5472433;25;20241;-75
2024/04/17 00:27:37;;;;;;;2.35;1.90;;;8.10;99.90;;;;;;5475623;25;20549;-75
2024/04/17 00:30:06;;;;;;;2.20;2.00;;;8.10;99.90;;;;;;5489480;25;20650;-75
2024/04/17 00:32:32;;;;;;;2.17;1.98;;;8.10;99.90;;;;;;5468941;25;20748;-74
2024/04/17 00:35:00;;;;;;;2.40;2.20;;;8.00;99.90;;;;;;5453397;26;21132;-74
2024/04/17 00:37:29;;;;;;;2.30;1.90;;;8.00;99.90;;;;;;5453575;26;20929;-74
2024/04/17 00:39:57;;;;;;;2.00;1.65;;;8.00;99.90;;;;;;5457100;25;20309;-75
2024/04/17 00:42:23;;;;;;;1.77;1.50;;;8.00;99.90;;;;;;5492838;25;20390;-75
2024/04/17 00:44:52;;;;;;;2.83;2.50;;;8.00;99.90;;;;;;5492599;25;20252;-75
2024/04/17 00:47:18;;;;;;;4.10;2.53;;;7.90;99.90;;;;;;5493336;25;20541;-75
2024/04/17 00:49:47;;;;;;;4.50;2.23;;;7.90;99.90;;;;;;5493311;25;20337;-75
2024/04/17 00:52:13;;;;;;;3.75;2.25;;;7.90;99.90;;;;;;5456635;26;20894;-76
2024/04/17 00:54:44;;;;;;;2.13;1.92;;;7.90;99.90;;;;;;5456487;26;20288;-74
2024/04/17 00:57:14;;;;;;;6.15;2.47;;;7.90;99.90;;;;;;5449394;26;20432;-74
2024/04/17 00:59:43;;;;;;;2.83;2.22;;;7.90;99.90;;;;;;5420766;26;20638;-75
2024/04/17 01:02:09;;;;;;;5.45;3.33;;;7.90;99.90;;;;;;5421023;26;20330;-75
2024/04/17 01:04:38;;;;;;;4.00;2.90;;;7.80;99.90;;;;;;5421120;26;20699;-75
2024/04/17 01:07:04;;;;;;;2.88;2.30;;;7.80;99.90;;;;;;5420142;26;20391;-75
2024/04/17 01:09:33;;;;;;;4.20;3.15;;;7.80;99.90;;;;;;5420940;26;20246;-75
2024/04/17 01:12:01;;;;;;;4.60;2.70;;;7.80;99.90;;;;;;5420325;26;20401;-75
2024/04/17 01:17:11;;;;;;;4.60;3.13;;;7.80;99.90;;;;;;5402550;26;20254;-75
2024/04/17 01:19:37;;;;;;;4.32;2.67;;;7.80;99.90;;;;;;5420752;26;20247;-75
2024/04/17 01:22:06;;;;;;;4.90;2.38;;;7.90;99.90;;;;;;5419910;26;20302;-75
2024/04/17 01:24:34;;;;;;;6.40;3.35;;;7.90;99.90;;;;;;5450782;26;20284;-75
2024/04/17 01:27:03;;;;;;;5.13;2.95;;;7.90;99.90;;;;;;5456094;26;20282;-75
2024/04/17 01:29:29;;;;;;;4.55;3.00;;;7.90;99.90;;;;;;5480872;25;20241;-74
2024/04/17 01:31:57;;;;;;;5.10;3.00;;;7.90;99.90;;;;;;5492407;25;20317;-75
2024/04/17 01:34:25;;;;;;;6.10;3.72;;;7.90;99.90;;;;;;5467143;26;20997;-75
2024/04/17 01:36:54;;;;;;;4.97;2.78;;;7.90;99.90;;;;;;5456308;26;20351;-75
2024/04/17 01:39:20;;;;;;;5.63;2.42;;;7.90;99.90;;;;;;5441182;26;21127;-75
2024/04/17 01:41:51;;;;;;;3.60;2.70;;;7.80;99.90;;;;;;5456304;26;20320;-75
2024/04/17 01:44:17;;;;;;;3.78;2.72;;;7.80;99.90;;;;;;5455650;26;20471;-75
2024/04/17 01:46:45;;;;;;;5.13;3.13;;;7.80;99.90;;;;;;5456164;26;20321;-75
2024/04/17 01:49:11;;;;;;;3.28;2.38;;;7.80;99.90;;;;;;5481217;25;20529;-75
2024/04/17 01:51:39;;;;;;;2.30;2.10;;;7.80;99.90;;;;;;5492845;25;20308;-75
2024/04/17 01:54:05;;;;;;;3.17;1.90;;;7.80;99.90;;;;;;5490873;25;20474;-75
2024/04/17 01:56:34;;;;;;;2.43;2.07;;;7.80;99.90;;;;;;5492546;25;20312;-75
2024/04/17 01:59:02;;;;;;;1.90;1.60;;;7.80;99.90;;;;;;5491855;25;20465;-75
2024/04/17 02:01:31;;;;;;;1.95;1.60;;;7.70;99.90;;;;;;5492905;25;20583;-75
2024/04/17 02:03:57;;;;;;;1.90;1.55;;;7.70;99.90;;;;;;5491597;25;20249;-75
2024/04/17 02:06:25;;;;;;;2.97;1.93;;;7.70;99.90;;;;;;5490226;25;20253;-75
2024/04/17 02:08:51;;;;;;;2.28;2.05;;;7.70;99.90;;;;;;5490366;25;20518;-75
2024/04/17 02:11:20;;;;;;;2.10;1.90;;;7.70;99.90;;;;;;5491302;25;21292;-75
2024/04/17 02:13:46;;;;;;;2.10;1.70;;;7.70;99.90;;;;;;5489817;25;20593;-75
2024/04/17 02:16:17;;;;;;;1.77;1.30;;;7.70;99.90;;;;;;5491813;25;20334;-75
2024/04/17 02:18:43;;;;;;;4.60;2.17;;;7.70;99.90;;;;;;5492584;25;20253;-75
2024/04/17 02:21:11;;;;;;;1.80;1.70;;;7.70;99.90;;;;;;5491575;25;20260;-75
2024/04/17 02:23:37;;;;;;;2.75;2.20;;;7.70;99.90;;;;;;5492112;25;20691;-75
2024/04/17 02:26:06;;;;;;;1.83;1.70;;;7.70;99.90;;;;;;5491602;25;20248;-75
2024/04/17 02:28:32;;;;;;;1.90;1.50;;;7.70;99.90;;;;;;5470299;25;21316;-75
2024/04/17 02:31:01;;;;;;;1.80;1.50;;;7.70;99.90;;;;;;5455805;26;20249;-75
2024/04/17 02:33:29;;;;;;;3.80;2.00;;;7.70;99.90;;;;;;5466113;26;20584;-75
2024/04/17 02:35:58;;;;;;;2.30;1.60;;;7.70;99.90;;;;;;5492147;26;20529;-75
2024/04/17 02:38:23;;;;;;;2.92;1.63;;;7.70;99.90;;;;;;5491630;26;20287;-75
2024/04/17 02:40:52;;;;;;;3.83;2.43;;;7.70;99.90;;;;;;5491694;25;20690;-75
2024/04/17 02:43:18;;;;;;;1.98;1.40;;;7.60;99.90;;;;;;5491421;25;20967;-74
2024/04/17 02:45:46;;;;;;;1.97;1.73;;;7.60;99.90;;;;;;5481317;25;20250;-74
2024/04/17 02:48:12;;;;;;;2.10;1.73;;;7.60;99.90;;;;;;5454527;26;20475;-74
2024/04/17 02:50:44;;;;;;;2.50;2.00;;;7.60;99.90;;;;;;5455353;25;20257;-74
2024/04/17 02:53:10;;;;;;;2.33;2.13;;;7.60;99.90;;;;;;5454973;25;20565;-75
2024/04/17 02:55:39;;;;;;;2.70;1.83;;;7.60;99.90;;;;;;5455305;25;20249;-75
2024/04/17 02:58:05;;;;;;;2.13;1.65;;;7.50;99.90;;;;;;5454724;25;20476;-75
2024/04/17 03:00:34;;;;;;;5.13;2.15;;;7.60;99.90;;;;;;5454950;25;20687;-75
2024/04/17 03:03:04;;;;;;;3.13;1.90;;;7.50;99.90;;;;;;5454870;25;20800;-75
2024/04/17 03:05:37;;;;;;;3.08;1.80;;;7.50;99.90;;;;;;5483112;25;20246;-75
2024/04/17 03:08:07;;;;;;;2.28;1.88;;;7.50;99.90;;;;;;5454682;26;20320;-75
2024/04/17 03:10:36;;;;;;;1.92;1.73;;;7.60;99.90;;;;;;5454664;26;20351;-75
2024/04/17 03:13:02;;;;;;;3.30;2.10;;;7.50;99.90;;;;;;5456608;26;20249;-75
2024/04/17 03:15:32;;;;;;;2.30;1.77;;;7.60;99.90;;;;;;5490826;25;20267;-75
2024/04/17 03:17:59;;;;;;;1.70;1.58;;;7.60;99.90;;;;;;5491133;25;20248;-75
2024/04/17 03:20:29;;;;;;;3.88;1.42;;;7.50;99.90;;;;;;5469095;25;20250;-75
2024/04/17 03:22:55;;;;;;;1.70;1.60;;;7.60;99.90;;;;;;5450431;26;20249;-75
2024/04/17 03:25:26;;;;;;;6.37;2.80;;;7.60;99.90;;;;;;5449701;26;20295;-75
2024/04/17 03:27:52;;;;;;;30.75;20.02;;;7.60;99.90;;;;;;5449964;26;20597;-75
2024/04/17 03:30:21;;;;;;;12.10;7.53;;;7.60;99.90;;;;;;5450964;26;20253;-75
2024/04/17 03:32:47;;;;;;;5.85;2.58;;;7.60;99.90;;;;;;5452520;26;20482;-75
2024/04/17 03:35:16;;;;;;;3.08;2.35;;;7.60;99.90;;;;;;5452698;26;20250;-75
2024/04/17 03:37:46;;;;;;;4.10;2.15;;;7.70;99.90;;;;;;5452826;26;20317;-75
2024/04/17 03:40:15;;;;;;;2.10;1.80;;;7.70;99.90;;;;;;5452486;26;20262;-75
2024/04/17 03:42:46;;;;;;;2.30;2.00;;;7.70;99.90;;;;;;5452782;26;20293;-75
2024/04/17 03:45:15;;;;;;;4.63;2.15;;;7.70;99.90;;;;;;5452462;26;20352;-76
2024/04/17 03:47:41;;;;;;;1.58;1.48;;;7.70;99.90;;;;;;5452861;26;20367;-75
2024/04/17 03:50:10;;;;;;;3.20;2.20;;;7.70;99.90;;;;;;5452777;26;20261;-75
2024/04/17 03:52:36;;;;;;;3.22;2.13;;;7.80;99.90;;;;;;5452490;26;20992;-75
2024/04/17 03:55:04;;;;;;;2.60;2.37;;;7.80;99.90;;;;;;5452680;26;20246;-75
2024/04/17 03:57:31;;;;;;;3.03;2.40;;;7.80;99.90;;;;;;5452116;26;20558;-75
2024/04/17 04:00:02;;;;;;;2.47;2.28;;;7.80;99.90;;;;;;5452479;26;20354;-75
2024/04/17 04:02:30;;;;;;;2.50;2.30;;;7.80;99.90;;;;;;5452372;26;20255;-75
2024/04/17 04:04:56;;;;;;;2.38;2.17;;;7.80;99.90;;;;;;5452604;26;20253;-76
2024/04/17 04:07:25;;;;;;;3.00;2.70;;;7.80;99.90;;;;;;5451824;26;20687;-75
2024/04/17 04:09:51;;;;;;;7.50;3.92;;;7.80;99.90;;;;;;5452416;26;20535;-75
2024/04/17 04:12:19;;;;;;;4.90;3.20;;;7.80;99.90;;;;;;5451873;26;20338;-75
2024/04/17 04:14:45;;;;;;;4.25;3.35;;;7.80;99.90;;;;;;5452463;26;20475;-75
2024/04/17 04:17:16;;;;;;;5.00;2.60;;;7.80;99.90;;;;;;5451025;26;20288;-75
2024/04/17 04:19:43;;;;;;;4.07;2.85;;;7.80;99.90;;;;;;5451736;26;20611;-75
2024/04/17 04:22:11;;;;;;;4.10;2.80;;;7.80;99.90;;;;;;5452367;26;20246;-75
2024/04/17 04:24:37;;;;;;;3.30;2.80;;;7.80;99.90;;;;;;5451803;26;20301;-75
2024/04/17 04:27:09;;;;;;;3.22;2.90;;;7.80;99.90;;;;;;5452227;26;20261;-76
2024/04/17 04:29:35;;;;;;;3.75;3.00;;;7.80;99.90;;;;;;5451687;26;20250;-75
2024/04/17 04:32:04;;;;;;;4.10;2.60;;;7.80;99.90;;;;;;5452189;26;20292;-75
2024/04/17 04:34:32;;;;;;;4.68;2.70;;;7.80;99.90;;;;;;5451602;26;20791;-75
2024/04/17 04:37:01;;;;;;;3.70;2.85;;;7.80;99.90;;;;;;5452130;26;20261;-75
2024/04/17 04:39:27;;;;;;;4.28;2.90;;;7.90;99.90;;;;;;5451507;26;20926;-75
2024/04/17 04:41:56;;;;;;;3.50;2.60;;;7.90;99.90;;;;;;5451825;26;20249;-75
2024/04/17 04:44:22;;;;;;;4.63;2.80;;;7.90;99.90;;;;;;5451470;26;20523;-76
2024/04/17 04:46:51;;;;;;;4.27;3.13;;;7.90;99.90;;;;;;5452009;26;20585;-75
2024/04/17 04:49:17;;;;;;;3.97;3.10;;;7.90;99.90;;;;;;5451736;26;20595;-75
2024/04/17 04:51:48;;;;;;;5.47;4.10;;;7.90;99.90;;;;;;5451531;26;20683;-75
2024/04/17 04:54:14;;;;;;;6.13;3.67;;;7.90;99.90;;;;;;5451591;26;20943;-75
2024/04/17 04:56:43;;;;;;;4.37;3.90;;;7.90;99.90;;;;;;5441320;26;20261;-75
2024/04/17 04:59:12;;;;;;;3.08;2.55;;;7.80;99.90;;;;;;5451937;26;20471;-75
2024/04/17 05:01:41;;;;;;;2.92;2.40;;;7.90;99.90;;;;;;5451126;26;20311;-74
2024/04/17 05:04:07;;;;;;;3.80;2.67;;;7.90;99.90;;;;;;5451610;26;20321;-75
2024/04/17 05:06:36;;;;;;;10.30;8.10;;;7.90;99.90;;;;;;5451205;26;20692;-75
2024/04/17 05:09:09;;;;;;;6.07;3.60;;;8.00;99.90;;;;;;5451095;26;20533;-74
2024/04/17 05:11:35;;;;;;;3.42;2.70;;;8.00;99.90;;;;;;5450898;26;20576;-75
2024/04/17 05:14:04;;;;;;;5.83;4.33;;;8.10;99.90;;;;;;5451753;26;20317;-75
2024/04/17 05:16:30;;;;;;;4.90;4.15;;;8.10;99.90;;;;;;5451044;26;20611;-75
2024/04/17 05:18:58;;;;;;;6.93;4.70;;;8.10;99.90;;;;;;5451086;26;20684;-75
2024/04/17 05:21:24;;;;;;;13.60;10.43;;;8.10;99.90;;;;;;5450801;26;20622;-75
2024/04/17 05:23:53;;;;;;;11.20;8.10;;;8.10;99.90;;;;;;5451212;26;20679;-74
2024/04/17 05:26:22;;;;;;;6.53;5.50;;;8.10;99.90;;;;;;5450744;26;20983;-76
2024/04/17 05:28:50;;;;;;;7.05;5.05;;;8.10;99.90;;;;;;5454730;26;20340;-74
2024/04/17 05:31:16;;;;;;;4.40;3.95;;;8.20;99.90;;;;;;5454677;26;20254;-75
2024/04/17 05:33:45;;;;;;;42.97;20.20;;;8.20;99.90;;;;;;5454412;26;20347;-74
2024/04/17 05:36:11;;;;;;;10.93;7.65;;;8.20;99.90;;;;;;5454641;26;20613;-75
2024/04/17 05:38:40;;;;;;;8.10;4.93;;;8.30;99.90;;;;;;5453891;26;20280;-76
2024/04/17 05:41:09;;;;;;;6.22;4.07;;;8.40;99.90;;;;;;5454688;26;20313;-75
2024/04/17 05:43:43;;;;;;;4.82;4.20;;;8.40;99.90;;;;;;5454584;26;20261;-74
2024/04/17 05:46:09;;;;;;;4.70;4.05;;;8.40;99.90;;;;;;5454517;26;20360;-75
2024/04/17 05:48:38;;;;;;;10.48;5.75;;;8.50;99.90;;;;;;5453810;26;20261;-75
2024/04/17 05:51:04;;;;;;;12.85;6.90;;;8.50;99.90;;;;;;5454486;26;20360;-75
2024/04/17 05:53:33;;;;;;;7.85;4.50;;;8.60;99.90;;;;;;5454067;26;20287;-75
2024/04/17 05:55:59;;;;;;;7.47;4.97;;;8.70;99.90;;;;;;5454217;26;20348;-75
2024/04/17 05:58:27;;;;;;;6.97;4.13;;;8.80;99.90;;;;;;5454670;26;20262;-73
2024/04/17 06:00:59;;;;;;;4.57;4.20;;;8.80;99.90;;;;;;5453970;26;20569;-74
2024/04/17 06:03:28;;;;;;;7.70;3.90;;;8.90;99.90;;;;;;5454198;26;20300;-75
2024/04/17 06:05:54;;;;;;;11.18;7.78;;;9.00;99.90;;;;;;5454148;26;20261;-75
2024/04/17 06:08:23;;;;;;;15.23;8.65;;;9.00;99.90;;;;;;5454136;26;20287;-75
2024/04/17 06:10:48;;;;;;;8.70;5.55;;;9.00;99.90;;;;;;5453940;26;20300;-75
2024/04/17 06:13:18;;;;;;;5.90;4.13;;;9.00;99.90;;;;;;5454602;26;20334;-74
2024/04/17 06:15:45;;;;;;;8.25;4.85;;;9.10;99.90;;;;;;5453920;26;20843;-75
2024/04/17 06:18:17;;;;;;;4.75;2.47;;;9.00;99.90;;;;;;5454071;26;20346;-75
2024/04/17 06:20:42;;;;;;;3.45;2.20;;;9.00;99.90;;;;;;5453773;26;20296;-75
2024/04/17 06:23:11;;;;;;;6.77;4.37;;;9.00;99.90;;;;;;5454177;26;20245;-75
2024/04/17 06:25:41;;;;;;;5.50;3.90;;;9.00;99.90;;;;;;5453646;26;20627;-75
2024/04/17 06:28:10;;;;;;;7.82;5.65;;;9.00;99.90;;;;;;5453994;26;20575;-75
2024/04/17 06:30:36;;;;;;;8.18;4.82;;;9.10;99.90;;;;;;5453289;26;20242;-75
2024/04/17 06:33:04;;;;;;;5.70;3.77;;;9.20;99.90;;;;;;5454169;26;20249;-76
2024/04/17 06:35:33;;;;;;;9.82;4.20;;;9.20;99.90;;;;;;5454143;26;20634;-75
2024/04/17 06:38:02;;;;;;;5.15;3.10;;;9.30;99.90;;;;;;5453458;26;20253;-75
2024/04/17 06:40:28;;;;;;;6.57;5.97;;;9.30;99.90;;;;;;5453184;26;20711;-75
2024/04/17 06:42:57;;;;;;;3.92;2.60;;;9.40;99.90;;;;;;5453565;26;20261;-75
2024/04/17 06:45:23;;;;;;;2.80;2.10;;;9.50;99.90;;;;;;5453503;26;20730;-75
2024/04/17 06:47:51;;;;;;;2.60;2.40;;;9.60;99.90;;;;;;5452881;26;20688;-74
2024/04/17 06:50:18;;;;;;;1.92;1.77;;;9.70;99.90;;;;;;5453551;26;20261;-74
2024/04/17 06:52:49;;;;;;;4.50;2.13;;;9.70;99.90;;;;;;5452971;26;20249;-75
2024/04/17 06:55:15;;;;;;;2.22;1.65;;;9.80;99.90;;;;;;5454091;26;20576;-75
2024/04/17 06:57:44;;;;;;;3.42;2.50;;;9.80;99.90;;;;;;5453309;26;20678;-75
2024/04/17 07:00:11;;;;;;;3.75;1.95;;;9.80;99.90;;;;;;5453415;26;20317;-74
2024/04/17 07:02:40;;;;;;;2.55;2.00;;;9.80;99.90;;;;;;5452992;26;20246;-74
2024/04/17 07:05:06;;;;;;;4.75;2.30;;;9.80;99.90;;;;;;5453542;26;20380;-75
2024/04/17 07:07:35;;;;;;;3.60;2.22;;;9.90;99.90;;;;;;5453485;26;20249;-74
2024/04/17 07:10:04;;;;;;;2.67;2.15;;;9.90;99.90;;;;;;5452850;26;20313;-74
2024/04/17 07:12:33;;;;;;;3.00;2.58;;;10.00;99.90;;;;;;5453419;26;20257;-75
2024/04/17 07:14:59;;;;;;;2.95;2.67;;;10.00;99.90;;;;;;5452892;26;20305;-75
2024/04/17 07:17:29;;;;;;;3.58;3.28;;;10.10;99.90;;;;;;5453052;26;20287;-74
2024/04/17 07:19:55;;;;;;;4.55;3.47;;;10.10;99.90;;;;;;5452808;26;20379;-75
2024/04/17 07:22:24;;;;;;;11.30;5.57;;;10.10;99.90;;;;;;5453306;26;20249;-75
2024/04/17 07:24:49;;;;;;;4.03;3.25;;;10.10;99.90;;;;;;5453060;26;20475;-75
2024/04/17 07:27:21;;;;;;;4.40;3.00;;;10.20;99.90;;;;;;5451575;26;20589;-75
2024/04/17 07:29:47;;;;;;;2.78;2.35;;;10.20;99.90;;;;;;5452478;26;20546;-76
2024/04/17 07:32:15;;;;;;;2.80;2.23;;;10.20;99.90;;;;;;5452967;26;20327;-76
2024/04/17 07:34:42;;;;;;;2.05;1.90;;;10.20;99.90;;;;;;5452593;26;20535;-75
2024/04/17 07:37:13;;;;;;;6.00;3.08;;;10.20;99.90;;;;;;5463076;26;20256;-74
2024/04/17 07:39:39;;;;;;;2.60;1.80;;;10.30;99.90;;;;;;5459407;26;20250;-75
2024/04/17 07:42:08;;;;;;;6.97;5.00;;;10.20;99.90;;;;;;5452589;26;20292;-75
2024/04/17 07:44:36;;;;;;;2.50;1.65;;;10.30;99.90;;;;;;5452960;26;20475;-75
2024/04/17 07:47:05;;;;;;;2.85;2.50;;;10.30;99.90;;;;;;5451665;26;20300;-75
2024/04/17 07:49:31;;;;;;;8.60;6.00;;;10.40;99.90;;;;;;5453136;26;20359;-75
2024/04/17 07:52:00;;;;;;;2.77;1.80;;;10.40;99.90;;;;;;5450699;26;20625;-75
2024/04/17 07:54:26;;;;;;;4.47;2.55;;;10.50;99.90;;;;;;5452624;26;20839;-75
2024/04/17 07:56:55;;;;;;;4.00;2.73;;;10.70;99.90;;;;;;5451934;26;20291;-75
2024/04/17 07:59:21;;;;;;;4.03;2.92;;;10.80;99.90;;;;;;5452470;26;20475;-76
2024/04/17 08:01:53;;;;;;;3.88;3.47;;;10.80;99.90;;;;;;5452565;26;20327;-74
2024/04/17 08:04:20;;;;;;;3.67;3.28;;;10.90;99.90;;;;;;5452560;26;21028;-75
2024/04/17 08:06:49;;;;;;;4.47;3.15;;;10.90;99.90;;;;;;5452078;26;20358;-74
2024/04/17 08:09:15;;;;;;;4.68;2.85;;;11.00;99.90;;;;;;5452366;26;20679;-74
2024/04/17 08:11:44;;;;;;;7.80;3.30;;;11.10;99.90;;;;;;5452680;26;20323;-74
2024/04/17 08:14:10;;;;;;;6.63;3.55;;;11.10;99.90;;;;;;5450854;26;20519;-73
2024/04/17 08:16:38;;;;;;;5.43;3.23;;;11.10;99.90;;;;;;5452574;26;20302;-75
2024/04/17 08:19:08;;;;;;;5.78;3.13;;;11.20;99.90;;;;;;5452054;26;20558;-74
2024/04/17 08:21:37;;;;;;;3.63;2.80;;;11.20;99.90;;;;;;5452453;26;20284;-75
2024/04/17 08:24:03;;;;;;;5.00;4.13;;;11.30;99.90;;;;;;5451650;26;20316;-76
2024/04/17 08:26:32;;;;;;;3.58;2.42;;;11.30;99.90;;;;;;5452296;26;20738;-74
2024/04/17 08:28:58;;;;;;;3.33;2.60;;;11.40;99.90;;;;;;5451379;26;20627;-75
2024/04/17 08:31:27;;;;;;;2.67;1.90;;;11.40;99.90;;;;;;5452215;26;20680;-75
2024/04/17 08:33:53;;;;;;;3.55;2.38;;;11.50;99.90;;;;;;5451214;26;20607;-76
2024/04/17 08:36:25;;;;;;;4.15;3.25;;;11.50;99.90;;;;;;5452229;26;20283;-75
2024/04/17 08:38:55;;;;;;;2.80;1.90;;;11.60;99.90;;;;;;5451791;26;20253;-74
2024/04/17 08:41:26;;;;;;;5.93;2.70;;;11.60;99.90;;;;;;5451308;26;20589;-74
2024/04/17 08:43:57;;;;;;;3.15;2.40;;;11.70;99.90;;;;;;5451300;26;20297;-75
2024/04/17 08:46:27;;;;;;;2.83;1.85;;;11.70;99.90;;;;;;5451979;26;20287;-74
2024/04/17 08:48:53;;;;;;;2.88;1.90;;;11.70;99.90;;;;;;5451403;26;20586;-74
2024/04/17 08:51:27;;;;;;;2.40;1.30;;;11.70;99.90;;;;;;5451937;26;20249;-74
2024/04/17 08:53:54;;;;;;;2.58;2.20;;;11.70;99.90;;;;;;5451183;26;20371;-75
2024/04/17 08:56:24;;;;;;;3.08;1.80;;;11.70;99.90;;;;;;5451754;26;20254;-74
2024/04/17 08:58:51;;;;;;;2.38;1.30;;;11.80;99.90;;;;;;5451156;26;20340;-75
2024/04/17 09:01:21;;;;;;;3.70;1.98;;;11.80;99.90;;;;;;5451589;26;20265;-74
2024/04/17 09:03:48;;;;;;;5.50;2.95;;;11.90;99.90;;;;;;5455187;26;20284;-75
2024/04/17 09:06:16;;;;;;;4.93;2.38;;;11.80;99.90;;;;;;5453906;26;20250;-75
2024/04/17 09:08:46;;;;;;;2.15;1.30;;;11.90;99.90;;;;;;5455054;26;20354;-74
2024/04/17 09:11:14;;;;;;;2.30;1.35;;;12.00;99.90;;;;;;5455050;26;20296;-74
2024/04/17 09:13:44;;;;;;;3.20;1.75;;;12.00;99.90;;;;;;5455003;26;20360;-75
2024/04/17 09:16:12;;;;;;;2.45;1.40;;;12.00;99.90;;;;;;5454497;26;20257;-74
2024/04/17 09:18:38;;;;;;;3.35;2.72;;;12.10;99.90;;;;;;5455431;26;20325;-74
2024/04/17 09:21:08;;;;;;;4.23;2.90;;;12.20;99.90;;;;;;5454565;26;20787;-75
2024/04/17 09:23:34;;;;;;;2.08;1.70;;;12.20;99.90;;;;;;5454873;26;20487;-75
2024/04/17 09:26:14;;;;;;;2.43;2.07;;;12.30;99.90;;;;;;5454593;26;20353;-75
2024/04/17 09:28:40;;;;;;;3.03;1.60;;;12.30;99.90;;;;;;5454904;26;20610;-75
2024/04/17 09:31:09;;;;;;;4.43;2.65;;;12.30;99.90;;;;;;5454818;26;20254;-75
2024/04/17 09:33:41;;;;;;;2.45;2.25;;;12.30;99.40;;;;;;5454822;26;20683;-75
2024/04/17 09:36:10;;;;;;;2.15;1.95;;;12.30;99.60;;;;;;5454401;26;20265;-75
2024/04/17 09:38:36;;;;;;;9.52;4.60;;;12.20;99.90;;;;;;5454784;26;20672;-75
2024/04/17 09:41:07;;;;;;;2.80;1.73;;;12.20;99.90;;;;;;5454021;26;20246;-75
2024/04/17 09:43:42;;;;;;;2.72;1.75;;;12.20;99.60;;;;;;5454663;26;20546;-75
2024/04/17 09:46:09;;;;;;;3.65;1.75;;;12.20;99.70;;;;;;5454420;26;20312;-75
2024/04/17 09:48:41;;;;;;;2.30;1.85;;;12.20;99.70;;;;;;5454495;26;20299;-75
2024/04/17 09:51:09;;;;;;;3.83;2.10;;;12.20;99.80;;;;;;5453927;26;20360;-75
2024/04/17 09:53:39;;;;;;;3.58;2.17;;;12.20;99.80;;;;;;5454452;26;20253;-75
2024/04/17 09:56:12;;;;;;;3.08;2.75;;;12.20;99.70;;;;;;5453794;26;20265;-75
2024/04/17 09:58:46;;;;;;;4.60;2.40;;;12.30;99.60;;;;;;5454525;26;20402;-75
2024/04/17 10:01:13;;;;;;;7.85;4.45;;;12.30;99.00;;;;;;5453941;26;20265;-75
2024/04/17 10:03:43;;;;;;;2.28;1.92;;;12.40;98.40;;;;;;5454438;26;20249;-75
2024/04/17 10:06:10;;;;;;;5.93;2.88;;;12.50;98.50;;;;;;5453820;26;20250;-75
2024/04/17 10:08:39;;;;;;;2.97;2.67;;;12.50;98.30;;;;;;5454268;26;20349;-75
2024/04/17 10:11:09;;;;;;;2.78;2.30;;;12.50;98.50;;;;;;5453777;26;20641;-75
2024/04/17 10:13:38;;;;;;;2.08;1.48;;;12.50;98.40;;;;;;5453353;26;20323;-75
2024/04/17 10:16:05;;;;;;;3.15;1.80;;;12.50;98.00;;;;;;5453574;26;20253;-75
2024/04/17 10:18:33;;;;;;;3.53;3.05;;;12.50;97.70;;;;;;5454156;26;20292;-75
2024/04/17 10:20:59;;;;;;;3.55;2.38;;;12.50;97.80;;;;;;5453321;26;20317;-75
2024/04/17 10:23:29;;;;;;;3.10;2.10;;;12.50;97.70;;;;;;5453979;26;20354;-75
2024/04/17 10:25:57;;;;;;;2.13;1.92;;;12.60;97.30;;;;;;5454231;26;20474;-75
2024/04/17 10:28:29;;;;;;;2.55;1.98;;;12.60;96.80;;;;;;5453607;26;20280;-74
2024/04/17 10:30:55;;;;;;;2.17;1.92;;;12.80;96.30;;;;;;5453903;26;20368;-74
2024/04/17 10:33:30;;;;;;;7.32;4.60;;;12.90;95.60;;;;;;5453574;26;20295;-74
2024/04/17 10:35:57;;;;;;;1.98;1.73;;;13.00;95.10;;;;;;5453816;26;20324;-75
2024/04/17 10:38:27;;;;;;;2.30;2.10;;;13.10;94.90;;;;;;5453319;26;20250;-75
2024/04/17 10:40:55;;;;;;;2.28;1.30;;;13.20;94.50;;;;;;5454151;26;20284;-75
2024/04/17 10:43:24;;;;;;;2.88;2.08;;;13.30;93.80;;;;;;5453105;26;20338;-75
2024/04/17 10:46:04;;;;;;;3.53;2.00;;;13.40;93.00;;;;;;5453639;26;20245;-75
2024/04/17 10:48:33;;;;;;;3.05;1.83;;;13.50;92.60;;;;;;5453395;26;20718;-75
2024/04/17 10:51:01;;;;;;;2.22;1.58;;;13.60;90.90;;;;;;5453865;26;20347;-75
2024/04/17 10:53:30;;;;;;;2.80;1.77;;;13.80;90.20;;;;;;5453186;26;20249;-75
2024/04/17 10:55:57;;;;;;;2.37;1.20;;;13.90;88.20;;;;;;5453401;26;20249;-74
2024/04/17 10:58:27;;;;;;;1.50;1.30;;;14.00;87.90;;;;;;5453076;26;20475;-75
2024/04/17 11:01:01;;;;;;;3.57;1.30;;;14.10;85.90;;;;;;5453213;26;20547;-75
2024/04/17 11:03:30;;;;;;;2.23;1.00;;;14.10;85.50;;;;;;5453097;26;20564;-74
2024/04/17 11:05:56;;;;;;;1.73;1.60;;;14.10;84.90;;;;;;5453335;26;20546;-75
2024/04/17 11:08:25;;;;;;;2.88;2.22;;;14.20;85.40;;;;;;5452787;26;20483;-75
2024/04/17 11:10:54;;;;;;;7.63;6.13;;;14.20;83.70;;;;;;5453722;26;20253;-75
2024/04/17 11:13:22;;;;;;;2.70;2.00;;;14.20;84.20;;;;;;5452397;26;20475;-75
2024/04/17 11:15:48;;;;;;;2.60;1.70;;;14.30;84.80;;;;;;5453367;26;20558;-75
2024/04/17 11:18:19;;;;;;;2.30;1.57;;;14.30;86.30;;;;;;5452600;26;20591;-75
2024/04/17 11:20:45;;;;;;;1.60;1.10;;;14.20;86.50;;;;;;5453202;26;20491;-75
2024/04/17 11:23:14;;;;;;;1.43;1.10;;;14.30;84.70;;;;;;5453076;26;20471;-75
2024/04/17 11:25:41;;;;;;;4.43;1.37;;;14.30;84.30;;;;;;5453044;26;20631;-76
2024/04/17 11:28:14;;;;;;;1.83;1.20;;;14.30;83.10;;;;;;5453221;26;20475;-75
2024/04/17 11:30:46;;;;;;;1.45;1.20;;;14.30;81.60;;;;;;5452767;26;20509;-74
2024/04/17 11:33:15;;;;;;;2.63;1.80;;;14.20;82.10;;;;;;5452913;26;20347;-74
2024/04/17 11:35:43;;;;;;;2.40;1.20;;;14.20;82.70;;;;;;5452466;26;20478;-74
2024/04/17 11:38:16;;;;;;;1.80;1.60;;;14.20;82.30;;;;;;5453275;26;20601;-75
2024/04/17 11:40:43;;;;;;;1.60;1.23;;;14.10;82.40;;;;;;5452584;26;21000;-75
2024/04/17 11:43:17;;;;;;;2.80;2.37;;;14.10;82.40;;;;;;5453091;26;20531;-75
2024/04/17 11:45:43;;;;;;;2.13;1.93;;;14.00;82.70;;;;;;5452806;26;21430;-75
2024/04/17 11:48:12;;;;;;;2.33;1.77;;;14.00;82.70;;;;;;5453084;26;20966;-74
2024/04/17 11:50:38;;;;;;;1.30;1.10;;;14.00;82.30;;;;;;5451692;26;20601;-75
2024/04/17 11:53:09;;;;;;;1.70;1.33;;;14.00;80.20;;;;;;5452839;26;20257;-75
2024/04/17 11:55:35;;;;;;;2.50;1.40;;;14.00;79.00;;;;;;5452156;26;20630;-75
2024/04/17 11:58:04;;;;;;;6.80;5.47;;;14.00;79.50;;;;;;5452463;26;20487;-75
2024/04/17 12:00:30;;;;;;;2.53;1.73;;;14.10;79.30;;;;;;5452127;26;20468;-75
2024/04/17 12:02:59;;;;;;;4.10;3.20;;;14.10;75.70;;;;;;5452622;26;20250;-75
2024/04/17 12:05:25;;;;;;;4.40;3.40;;;14.20;75.70;;;;;;5452384;26;20546;-75
2024/04/17 12:07:54;;;;;;;2.95;1.60;;;14.20;76.40;;;;;;5452804;26;20768;-75
2024/04/17 12:10:22;;;;;;;1.93;1.80;;;14.30;76.70;;;;;;5459208;25;20315;-75
2024/04/17 12:12:51;;;;;;;2.40;1.73;;;14.30;77.50;;;;;;5483595;26;20469;-75
2024/04/17 12:15:17;;;;;;;3.97;1.90;;;14.20;78.20;;;;;;5451647;26;20476;-75
2024/04/17 12:17:46;;;;;;;2.00;1.53;;;14.20;79.00;;;;;;5481706;25;20670;-75
2024/04/17 12:20:12;;;;;;;5.30;2.13;;;14.10;79.30;;;;;;5488654;26;20975;-75
2024/04/17 12:22:40;;;;;;;2.87;1.10;;;14.10;79.40;;;;;;5486267;25;20248;-75
2024/04/17 12:27:56;;;;;;;2.90;1.40;;;14.00;78.70;;;;;;5474214;25;20553;-75
2024/04/17 12:30:25;;;;;;;2.80;1.45;;;14.00;78.70;;;;;;5480584;25;20482;-75
2024/04/17 12:32:53;;;;;;;2.60;1.47;;;13.90;78.40;;;;;;5476038;25;20787;-75
2024/04/17 12:35:22;;;;;;;2.85;2.03;;;13.90;78.00;;;;;;5488060;25;20904;-75
2024/04/17 12:37:51;;;;;;;1.60;1.50;;;13.90;77.20;;;;;;5473309;25;20365;-75
2024/04/17 12:40:20;;;;;;;1.30;1.10;;;13.90;77.00;;;;;;5431238;26;20548;-75
2024/04/17 12:42:48;;;;;;;1.50;1.40;;;14.00;77.10;;;;;;5448518;26;20313;-75
2024/04/17 12:45:20;;;;;;;4.07;1.20;;;14.00;75.60;;;;;;5426068;26;20488;-75
2024/04/17 12:47:48;;;;;;;1.90;1.70;;;14.00;76.00;;;;;;5466097;25;21153;-74
2024/04/17 12:50:14;;;;;;;1.52;1.40;;;14.10;76.60;;;;;;5455798;26;20478;-74
2024/04/17 12:52:47;;;;;;;1.98;1.42;;;14.10;75.30;;;;;;5492300;25;20283;-74
2024/04/17 12:55:15;;;;;;;2.57;1.50;;;14.10;74.70;;;;;;5488081;25;20328;-74
2024/04/17 12:57:42;;;;;;;2.75;1.73;;;14.10;74.10;;;;;;5487428;25;20866;-74
2024/04/17 13:00:11;;;;;;;2.53;1.65;;;14.10;74.80;;;;;;5470321;25;20298;-74
2024/04/17 13:02:40;;;;;;;3.38;2.47;;;14.00;75.40;;;;;;5472569;25;20367;-74